Historique des mesures à Cassis (13260), France
Quotidien Résumé Fevrier 2, 2018 Unités:  Métrique    US   Métrique/US
« Précédent (Jour)
Suivant (Jour) »
Quotidien Hebdomadaire Mensuel Annuel Période au choix
  Maximum: Minimum: Moyenne:
Température: -17.8 °C -14.7 °C -13.8 °C
Point de rosée: -17.8 °C -19.4 °C -18.2 °C
Humidité: Humidity % 50 % 53 %
Vitesse du vent: 0 km/h 0 km/h 10.5 km/h
Rafales: 0 km/h - -
Vent:- - WSW
Pression: 0 hPa 33822.8 hPa -
Précipitations: 0 mm    
Historical Graphs
 
 
Mesures pour : Fevrier 2, 2018
Heure Temperature Point de rosée Pression Vent Vitesse du vent Rafales Humidité Pluie (par heure) Conditions
-17.8 °C -17.8 °C 0 hPa Calm     Humidity % 0 mm SoftwareType W/m2
00:12 -13.4 °C -17.3 °C 33866.8 hPa NW 10.9 km/h 10.9 km/h 62 % 0 mm open2300-1.11 W/m2
01:12 -13.4 °C -17.7 °C 33843.1 hPa West 16.9 km/h 17.9 km/h 58 % 0 mm open2300-1.11 W/m2
02:12 -13.6 °C -18.3 °C 33832.9 hPa WNW 23 km/h 23 km/h 55 % 0 mm open2300-1.11 W/m2
03:12 -13.9 °C -18.7 °C 33832.9 hPa NNW 6.4 km/h 8 km/h 54 % 0 mm open2300-1.11 W/m2
04:12 -14.6 °C -18.4 °C 33832.9 hPa NW 7.6 km/h 10.3 km/h 61 % 0 mm open2300-1.11 W/m2
05:12 -14.5 °C -18.4 °C 33832.9 hPa Calm   3.4 km/h 61 % 0 mm open2300-1.11 W/m2
06:12 -14.5 °C -18.5 °C 33843.1 hPa West 4.2 km/h 4.2 km/h 60 % 0 mm open2300-1.11 W/m2
07:12 -14.7 °C -18.7 °C 33843.1 hPa North 6.4 km/h 12.2 km/h 60 % 0 mm open2300-1.11 W/m2
08:12 -14.5 °C -18.8 °C 33832.9 hPa Calm   14 km/h 58 % 0 mm open2300-1.11 W/m2
09:12 -14.2 °C -18.7 °C 33843.1 hPa Calm     57 % 0 mm open2300-1.11 W/m2
11:12 -13.7 °C -18.7 °C 33856.6 hPa North 4.2 km/h 19.2 km/h 53 % 0 mm open2300-1.11 W/m2
12:12 -13.4 °C -18.3 °C 33866.8 hPa WSW 20.9 km/h 20.9 km/h 54 % 0 mm open2300-1.11 W/m2
13:12 -12.8 °C -17.9 °C 33832.9 hPa NNW 14 km/h 24.3 km/h 53 % 0 mm open2300-1.11 W/m2
14:12 -12.8 °C -17.6 °C 33822.8 hPa NNW 4.7 km/h 6.4 km/h 55 % 0 mm open2300-1.11 W/m2
15:12 -12.8 °C -17.3 °C 33822.8 hPa NNE 10.3 km/h 25.4 km/h 57 % 0 mm open2300-1.11 W/m2
16:12 -12.6 °C -17.3 °C 33822.8 hPa West 8.9 km/h 8.9 km/h 56 % 0 mm open2300-1.11 W/m2
17:12 -12.7 °C -17.5 °C 33822.8 hPa West 9.8 km/h 9.8 km/h 55 % 0 mm open2300-1.11 W/m2
18:12 -13 °C -17.6 °C 33832.9 hPa NNW 12.2 km/h 17.9 km/h 56 % 0 mm open2300-1.11 W/m2
19:12 -13.2 °C -18.1 °C 33832.9 hPa NW 16.3 km/h 36.5 km/h 54 % 0 mm open2300-1.11 W/m2
20:12 -13.2 °C -18.7 °C 33843.1 hPa Calm   14 km/h 50 % 0 mm open2300-1.11 W/m2
21:12 -13.6 °C -18.8 °C 33832.9 hPa WNW 23 km/h 33.6 km/h 51 % 0 mm open2300-1.11 W/m2
22:12 -13.9 °C -19.2 °C 33822.8 hPa NW 12.2 km/h 12.2 km/h 51 % 0 mm open2300-1.11 W/m2
23:12 -14.2 °C -19.4 °C 33832.9 hPa WNW 37.5 km/h 37.5 km/h 51 % 0 mm open2300-1.11 W/m2
Observations météo à CASSIS
WU-History script by Weather Underground - 1 mb